Time;durP1;ratioP1;P1;durP2;ratioP2;P2;SDS_P1;SDS_P2;PMS_P1;PMS_P2;Temp;Humidity;BMP_temperature;BMP_pressure;BME280_temperature;BME280_humidity;BME280_pressure;Samples;Min_cycle;Max_cycle;Signal;HPM_P1;HPM_P2
2022/06/11 00:01:58;;;;;;;6.78;5.63;;;18.50;99.90;;;;;;4962077;28;20234;-73
2022/06/11 00:04:47;;;;;;;7.57;5.63;;;18.40;99.90;;;;;;4957769;28;20331;-74
2022/06/11 00:07:36;;;;;;;7.03;5.10;;;18.40;99.90;;;;;;4960459;28;20250;-73
2022/06/11 00:10:25;;;;;;;5.43;4.90;;;18.50;99.90;;;;;;4946486;28;20754;-74
2022/06/11 00:13:14;;;;;;;8.57;7.28;;;18.40;99.90;;;;;;4959131;28;20671;-75
2022/06/11 00:16:05;;;;;;;27.77;23.92;;;18.20;99.90;;;;;;4945777;28;20224;-75
2022/06/11 00:18:55;;;;;;;37.00;29.92;;;18.10;99.90;;;;;;4948650;28;20314;-75
2022/06/11 00:21:45;;;;;;;40.42;33.88;;;18.20;99.90;;;;;;4962656;28;20315;-75
2022/06/11 00:24:34;;;;;;;58.10;48.05;;;18.10;99.90;;;;;;4957598;28;20239;-74
2022/06/11 00:27:23;;;;;;;52.65;41.60;;;18.10;99.90;;;;;;4947371;28;20227;-74
2022/06/11 00:30:12;;;;;;;35.72;23.95;;;18.10;99.90;;;;;;4939973;28;20308;-75
2022/06/11 00:33:06;;;;;;;28.98;22.40;;;18.00;99.90;;;;;;4958358;28;20227;-74
2022/06/11 00:35:58;;;;;;;21.70;13.38;;;18.10;99.90;;;;;;4961389;28;20254;-74
2022/06/11 00:38:49;;;;;;;27.83;18.38;;;18.20;99.90;;;;;;4944156;28;20235;-75
2022/06/11 00:41:41;;;;;;;25.50;16.38;;;18.20;99.90;;;;;;4948663;28;20634;-75
2022/06/11 00:44:30;;;;;;;16.50;10.50;;;17.90;99.90;;;;;;4962605;28;20219;-73
2022/06/11 00:47:21;;;;;;;13.05;8.65;;;17.80;99.90;;;;;;4955969;28;20227;-74
2022/06/11 00:50:19;;;;;;;10.32;7.00;;;17.90;99.90;;;;;;4956898;28;20245;-74
2022/06/11 00:53:14;;;;;;;7.32;5.28;;;17.70;99.90;;;;;;4947736;28;20227;-74
2022/06/11 00:56:06;;;;;;;7.50;5.03;;;17.70;99.90;;;;;;4956124;28;20258;-74
2022/06/11 00:58:58;;;;;;;7.57;5.00;;;17.60;99.90;;;;;;4955815;28;20345;-73
2022/06/11 01:01:48;;;;;;;6.60;5.55;;;17.60;99.90;;;;;;4944442;28;20251;-73
2022/06/11 01:04:48;;;;;;;7.70;5.13;;;17.50;99.90;;;;;;4955439;28;20691;-75
2022/06/11 01:07:56;;;;;;;6.30;5.03;;;17.60;99.90;;;;;;4959119;28;20236;-75
2022/06/11 01:11:15;;;;;;;7.03;5.13;;;17.60;99.90;;;;;;4960568;28;20235;-75
2022/06/11 01:14:16;;;;;;;5.13;4.63;;;17.50;99.90;;;;;;4962608;28;20354;-74
2022/06/11 01:17:19;;;;;;;6.43;4.97;;;17.70;99.90;;;;;;4960365;28;20788;-76
2022/06/11 01:20:20;;;;;;;6.30;4.80;;;17.70;99.90;;;;;;4959538;28;20214;-75
2022/06/11 01:23:51;;;;;;;8.00;5.10;;;17.50;99.90;;;;;;4963457;28;20286;-74
2022/06/11 01:27:01;;;;;;;6.63;5.32;;;17.60;99.90;;;;;;4909415;28;20323;-74
2022/06/11 01:29:54;;;;;;;6.40;5.18;;;17.40;99.90;;;;;;4946354;28;20327;-74
2022/06/11 01:32:52;;;;;;;5.93;5.00;;;17.30;99.90;;;;;;4957981;28;20234;-74
2022/06/11 01:35:57;;;;;;;6.20;4.47;;;17.30;99.90;;;;;;4946412;28;20223;-74
2022/06/11 01:38:51;;;;;;;6.75;5.50;;;17.10;99.90;;;;;;4961620;28;20559;-75
2022/06/11 01:41:47;;;;;;;5.05;4.53;;;17.10;99.90;;;;;;4949210;28;20306;-75
2022/06/11 01:44:39;;;;;;;5.45;4.53;;;17.20;99.90;;;;;;4962102;28;20665;-74
2022/06/11 01:47:30;;;;;;;5.70;4.68;;;17.00;99.90;;;;;;4958796;28;20223;-75
2022/06/11 01:50:24;;;;;;;6.72;4.60;;;17.10;99.90;;;;;;4954372;28;20667;-75
2022/06/11 01:53:34;;;;;;;5.88;4.57;;;17.10;99.90;;;;;;4950337;28;20216;-74
2022/06/11 01:56:46;;;;;;;7.32;4.88;;;17.10;99.90;;;;;;4957955;28;20223;-75
2022/06/11 01:59:49;;;;;;;5.60;4.38;;;17.10;99.90;;;;;;4944606;28;20315;-75
2022/06/11 02:02:57;;;;;;;7.53;4.28;;;17.10;99.90;;;;;;4953308;28;20248;-75
2022/06/11 02:05:57;;;;;;;4.82;4.20;;;17.10;99.90;;;;;;4955447;28;20609;-75
2022/06/11 02:08:56;;;;;;;7.25;4.43;;;17.00;99.90;;;;;;4961019;28;20234;-75
2022/06/11 02:11:48;;;;;;;6.35;4.05;;;17.00;99.90;;;;;;4966162;28;20242;-76
2022/06/11 02:14:48;;;;;;;4.00;3.60;;;17.10;99.90;;;;;;4960851;28;20244;-78
2022/06/11 02:17:42;;;;;;;6.18;4.20;;;17.00;99.90;;;;;;4950023;28;20265;-74
2022/06/11 02:20:35;;;;;;;8.05;3.50;;;17.10;99.90;;;;;;4961605;28;20277;-76
2022/06/11 02:23:26;;;;;;;5.47;3.58;;;17.10;99.90;;;;;;4962166;28;20298;-75
2022/06/11 02:26:20;;;;;;;4.53;3.17;;;17.10;99.90;;;;;;4949720;28;20828;-74
2022/06/11 02:29:12;;;;;;;4.53;3.67;;;17.10;99.90;;;;;;4960150;28;20277;-75
2022/06/11 02:32:06;;;;;;;4.43;3.72;;;17.20;99.90;;;;;;4947308;28;20362;-74
2022/06/11 02:34:59;;;;;;;3.75;3.42;;;17.10;99.90;;;;;;4946206;28;20790;-75
2022/06/11 02:37:48;;;;;;;6.03;3.50;;;17.10;99.90;;;;;;4943090;28;20761;-74
2022/06/11 02:40:41;;;;;;;5.20;3.85;;;16.90;99.90;;;;;;4960190;28;20223;-76
2022/06/11 02:43:34;;;;;;;4.43;4.03;;;16.90;99.90;;;;;;4955600;28;20220;-75
2022/06/11 02:49:32;;;;;;;5.05;3.47;;;16.80;99.90;;;;;;4959778;28;20238;-75
2022/06/11 02:52:29;;;;;;;4.80;3.70;;;16.90;99.90;;;;;;4959902;28;20325;-75
2022/06/11 02:55:18;;;;;;;4.30;3.50;;;17.00;99.90;;;;;;4945869;28;20302;-76
2022/06/11 02:58:09;;;;;;;3.85;3.38;;;16.80;99.90;;;;;;4958294;28;20216;-75
2022/06/11 03:00:57;;;;;;;4.38;3.60;;;17.10;99.90;;;;;;4960211;28;20299;-75
2022/06/11 03:03:48;;;;;;;4.65;3.40;;;16.90;99.90;;;;;;4959658;28;20301;-75
2022/06/11 03:06:41;;;;;;;4.53;3.42;;;16.80;99.90;;;;;;4931194;28;21327;-75
2022/06/11 03:09:36;;;;;;;4.95;3.60;;;16.70;99.90;;;;;;4957369;28;20311;-75
2022/06/11 03:12:25;;;;;;;4.60;3.72;;;16.80;99.90;;;;;;4945579;28;20226;-74
2022/06/11 03:15:16;;;;;;;4.40;3.60;;;16.70;99.90;;;;;;4958712;28;20224;-74
2022/06/11 03:18:05;;;;;;;3.65;3.35;;;16.90;99.90;;;;;;4946174;28;20251;-75
2022/06/11 03:20:54;;;;;;;7.00;3.53;;;16.90;99.90;;;;;;4959932;28;21551;-75
2022/06/11 03:23:43;;;;;;;3.85;3.20;;;17.00;99.90;;;;;;4960624;28;20224;-73
2022/06/11 03:26:33;;;;;;;3.78;3.30;;;17.00;99.90;;;;;;4957623;28;20735;-72
2022/06/11 03:29:23;;;;;;;5.78;3.40;;;17.00;99.90;;;;;;4961724;28;20310;-73
2022/06/11 03:32:12;;;;;;;5.65;3.10;;;17.00;99.90;;;;;;4958786;28;20297;-74
2022/06/11 03:35:01;;;;;;;4.20;3.08;;;17.00;99.90;;;;;;4956332;28;20234;-73
2022/06/11 03:37:50;;;;;;;5.00;3.22;;;17.10;99.90;;;;;;4963419;28;20234;-77
2022/06/11 03:40:39;;;;;;;3.47;3.10;;;17.40;99.90;;;;;;4959427;28;20231;-75
2022/06/11 03:43:29;;;;;;;4.00;3.17;;;17.30;99.90;;;;;;4958679;28;20219;-76
2022/06/11 03:46:19;;;;;;;6.85;3.08;;;17.10;99.90;;;;;;4944210;28;20318;-75
2022/06/11 03:49:08;;;;;;;3.53;3.00;;;17.10;99.90;;;;;;4960471;28;20911;-76
2022/06/11 03:51:56;;;;;;;6.28;2.90;;;17.10;99.90;;;;;;4959079;28;20719;-75
2022/06/11 03:54:46;;;;;;;3.42;3.13;;;17.30;99.90;;;;;;4963720;28;20227;-77
2022/06/11 03:57:34;;;;;;;3.10;2.80;;;17.40;99.90;;;;;;4959451;28;20230;-76
2022/06/11 04:03:31;;;;;;;3.80;2.70;;;17.30;99.90;;;;;;4956373;28;20306;-76
2022/06/11 04:06:23;;;;;;;3.65;2.80;;;17.30;99.90;;;;;;4944647;28;20287;-76
2022/06/11 04:09:14;;;;;;;3.58;2.80;;;17.20;99.90;;;;;;4958697;28;20595;-76
2022/06/11 04:12:09;;;;;;;5.95;2.35;;;17.40;99.90;;;;;;4959751;28;20224;-76
2022/06/11 04:14:58;;;;;;;7.43;2.40;;;17.50;99.90;;;;;;4958358;28;20251;-76
2022/06/11 04:17:48;;;;;;;2.40;2.20;;;17.70;99.90;;;;;;4946557;28;20243;-76
2022/06/11 04:20:40;;;;;;;2.63;2.30;;;17.50;99.90;;;;;;4956573;28;20290;-77
2022/06/11 04:23:30;;;;;;;2.63;1.90;;;17.60;99.90;;;;;;4959369;28;20239;-76
2022/06/11 04:26:22;;;;;;;2.38;2.17;;;17.60;99.90;;;;;;4960251;28;20318;-76
2022/06/11 04:29:15;;;;;;;3.90;2.47;;;17.60;99.90;;;;;;4947785;28;20220;-76
2022/06/11 04:32:07;;;;;;;4.85;2.50;;;17.70;99.90;;;;;;4963330;28;20224;-76
2022/06/11 04:34:58;;;;;;;3.58;2.97;;;18.00;99.90;;;;;;4953368;28;20223;-76
2022/06/11 04:37:47;;;;;;;4.90;2.50;;;18.10;99.90;;;;;;4959127;28;20227;-76
2022/06/11 04:40:36;;;;;;;5.18;3.03;;;18.10;99.90;;;;;;4957991;28;20215;-75
2022/06/11 04:43:24;;;;;;;3.05;2.70;;;18.20;99.90;;;;;;4960928;28;20231;-75
2022/06/11 04:46:13;;;;;;;2.75;2.50;;;18.30;99.90;;;;;;4963395;28;20216;-75
2022/06/11 04:49:02;;;;;;;2.97;2.40;;;18.40;99.90;;;;;;4949832;28;20298;-73
2022/06/11 04:51:52;;;;;;;3.17;2.70;;;18.50;99.90;;;;;;4948984;28;20231;-75
2022/06/11 04:54:40;;;;;;;4.30;2.88;;;18.70;99.90;;;;;;4958085;28;20663;-74
2022/06/11 04:57:30;;;;;;;4.82;2.90;;;18.80;99.90;;;;;;4945144;28;20221;-71
2022/06/11 05:00:21;;;;;;;2.78;2.58;;;18.70;99.90;;;;;;4960068;28;20212;-72
2022/06/11 05:03:10;;;;;;;3.58;2.92;;;19.00;99.90;;;;;;4960618;28;20227;-71
2022/06/11 05:06:01;;;;;;;6.57;2.50;;;19.10;99.90;;;;;;4960613;28;20318;-76
2022/06/11 05:08:51;;;;;;;2.50;2.30;;;19.30;99.90;;;;;;4945337;28;20252;-76
2022/06/11 05:11:40;;;;;;;3.10;2.42;;;19.30;99.90;;;;;;4961855;28;20307;-74
2022/06/11 05:14:29;;;;;;;2.38;2.17;;;19.30;99.90;;;;;;4963513;28;20224;-74
2022/06/11 05:17:18;;;;;;;2.53;2.10;;;19.20;99.90;;;;;;4962687;28;20227;-79
2022/06/11 05:20:08;;;;;;;2.85;2.00;;;19.20;99.90;;;;;;4947164;28;20694;-76
2022/06/11 05:22:57;;;;;;;3.38;2.10;;;19.40;99.90;;;;;;4959588;28;20536;-77
2022/06/11 05:25:49;;;;;;;4.55;2.30;;;19.30;99.90;;;;;;4948092;28;24978;-78
2022/06/11 05:28:38;;;;;;;3.50;2.53;;;19.60;99.90;;;;;;4961261;28;21128;-73
2022/06/11 05:31:26;;;;;;;5.45;2.50;;;19.60;99.90;;;;;;4962179;28;20224;-72
2022/06/11 05:34:15;;;;;;;3.63;2.30;;;19.70;99.90;;;;;;4945378;28;20539;-74
2022/06/11 05:37:04;;;;;;;3.67;2.50;;;19.50;99.90;;;;;;4960886;28;20230;-73
2022/06/11 05:39:59;;;;;;;2.35;2.15;;;19.80;99.90;;;;;;4959557;28;20227;-75
2022/06/11 05:42:49;;;;;;;3.78;2.35;;;19.80;99.90;;;;;;4959664;28;20229;-74
2022/06/11 05:45:43;;;;;;;4.20;2.58;;;19.90;99.90;;;;;;4956902;28;20243;-75
2022/06/11 05:48:36;;;;;;;3.72;2.60;;;19.90;99.90;;;;;;4960078;28;20236;-75
2022/06/11 05:51:28;;;;;;;3.45;2.58;;;20.00;99.90;;;;;;4945146;28;20219;-77
2022/06/11 05:54:20;;;;;;;4.60;2.58;;;20.20;99.90;;;;;;4958270;28;20695;-78
2022/06/11 05:57:12;;;;;;;3.13;2.45;;;20.20;99.90;;;;;;4959188;28;20223;-73
2022/06/11 06:00:09;;;;;;;3.38;2.20;;;20.40;99.90;;;;;;4963182;28;20271;-74
2022/06/11 06:03:01;;;;;;;6.95;2.60;;;20.40;99.90;;;;;;4963969;28;20231;-74
2022/06/11 06:05:52;;;;;;;4.30;2.30;;;20.50;99.90;;;;;;4961730;28;20241;-74
2022/06/11 06:08:40;;;;;;;9.57;2.72;;;20.60;99.90;;;;;;4961497;28;20235;-81
2022/06/11 06:11:29;;;;;;;5.20;2.30;;;20.70;99.90;;;;;;4966115;28;20782;-75
2022/06/11 06:14:18;;;;;;;4.70;2.55;;;20.60;99.90;;;;;;4957515;28;20302;-76
2022/06/11 06:17:08;;;;;;;4.75;2.38;;;20.70;99.90;;;;;;4945765;28;20872;-75
2022/06/11 06:20:18;;;;;;;7.70;3.35;;;21.20;99.90;;;;;;4966255;28;20361;-75
2022/06/11 06:23:07;;;;;;;5.18;2.80;;;22.80;99.90;;;;;;4965218;28;20220;-72
2022/06/11 06:25:56;;;;;;;4.00;2.58;;;24.50;99.90;;;;;;4959347;28;20647;-81
2022/06/11 06:28:45;;;;;;;3.97;2.95;;;23.80;99.90;;;;;;4963032;28;20614;-75
2022/06/11 06:31:34;;;;;;;5.35;3.00;;;23.00;99.90;;;;;;4961398;28;20587;-77
2022/06/11 06:34:24;;;;;;;3.75;2.58;;;22.10;99.90;;;;;;4958087;28;20227;-76
2022/06/11 06:37:13;;;;;;;5.80;2.88;;;21.70;99.90;;;;;;4960708;28;20227;-75
2022/06/11 06:40:01;;;;;;;6.03;3.10;;;21.60;99.90;;;;;;4960104;28;20281;-83
2022/06/11 06:42:50;;;;;;;3.80;2.78;;;21.50;99.90;;;;;;4958779;28;20220;-86
2022/06/11 06:45:38;;;;;;;7.38;2.33;;;21.50;99.90;;;;;;4960367;28;20227;-76
2022/06/11 06:48:27;;;;;;;2.95;2.50;;;21.70;99.90;;;;;;4965459;28;21225;-75
2022/06/11 06:51:18;;;;;;;3.30;3.00;;;21.70;99.90;;;;;;4967239;28;20235;-76
2022/06/11 06:54:07;;;;;;;5.10;2.90;;;21.00;99.90;;;;;;4962938;28;20307;-74
2022/06/11 06:56:56;;;;;;;4.95;3.33;;;21.20;99.90;;;;;;4960807;28;20230;-76
2022/06/11 06:59:44;;;;;;;4.80;3.28;;;21.50;99.90;;;;;;4951481;28;20235;-75
2022/06/11 07:02:38;;;;;;;4.03;3.10;;;21.20;99.90;;;;;;4960404;28;20232;-74
2022/06/11 07:05:27;;;;;;;7.53;3.00;;;21.20;99.90;;;;;;4964498;28;20234;-73
2022/06/11 07:08:18;;;;;;;4.68;2.53;;;21.40;99.90;;;;;;4965130;28;20314;-74
2022/06/11 13:57:58;;;;;;;4.43;1.90;;;27.00;59.10;;;;;;5013419;28;20855;-72
2022/06/11 14:00:59;;;;;;;2.30;2.05;;;26.50;60.00;;;;;;5011913;28;20233;-73
2022/06/11 14:04:31;;;;;;;5.40;2.05;;;26.40;61.90;;;;;;5023063;28;20585;-72
2022/06/11 14:07:24;;;;;;;2.45;2.00;;;26.30;61.80;;;;;;5018451;28;20314;-72
2022/06/11 14:10:28;;;;;;;2.45;1.88;;;26.40;62.70;;;;;;5020513;28;20519;-72
2022/06/11 14:13:54;;;;;;;2.28;1.80;;;26.10;61.40;;;;;;5015614;28;20278;-72
2022/06/11 14:16:48;;;;;;;2.47;1.77;;;26.00;61.60;;;;;;5003653;28;20547;-73
2022/06/11 14:19:40;;;;;;;6.57;2.00;;;26.10;61.60;;;;;;5000698;28;20716;-72
2022/06/11 14:22:49;;;;;;;2.22;1.75;;;26.00;60.00;;;;;;5000277;28;20226;-72
2022/06/11 14:25:53;;;;;;;2.63;1.80;;;26.10;61.50;;;;;;4999781;28;20875;-72
2022/06/11 14:28:48;;;;;;;2.90;1.70;;;26.20;60.70;;;;;;4996208;28;20218;-74
2022/06/11 14:31:53;;;;;;;2.90;1.95;;;25.70;59.70;;;;;;4998198;28;20222;-72
2022/06/11 14:35:04;;;;;;;2.22;1.60;;;25.60;61.30;;;;;;4996998;28;20221;-74
2022/06/11 14:37:53;;;;;;;3.38;2.50;;;25.70;61.00;;;;;;4995164;28;20222;-75
2022/06/11 14:40:42;;;;;;;2.92;2.15;;;25.70;60.00;;;;;;5005770;28;20690;-74
2022/06/11 14:44:17;;;;;;;5.45;1.70;;;26.00;61.50;;;;;;4999417;28;21410;-74
2022/06/11 14:47:43;;;;;;;2.33;1.80;;;26.00;61.20;;;;;;4963151;28;20681;-76
2022/06/11 14:50:43;;;;;;;3.05;1.90;;;25.80;60.70;;;;;;5013793;28;20217;-74
2022/06/11 14:53:37;;;;;;;3.50;1.77;;;25.80;60.50;;;;;;5017754;28;20221;-73
2022/06/11 14:56:49;;;;;;;4.47;1.85;;;25.70;61.10;;;;;;4991175;28;20237;-73
2022/06/11 15:00:01;;;;;;;2.55;1.73;;;25.30;61.80;;;;;;5015828;28;20313;-73
2022/06/11 15:03:24;;;;;;;3.58;1.90;;;25.30;60.80;;;;;;5017643;28;20294;-75
2022/06/11 15:06:35;;;;;;;3.97;2.80;;;25.20;60.40;;;;;;4999823;28;20262;-74
2022/06/11 15:09:50;;;;;;;2.75;1.95;;;25.40;61.30;;;;;;5002854;28;20669;-75
2022/06/11 15:13:21;;;;;;;2.65;1.67;;;25.30;61.50;;;;;;5005420;28;20257;-75
2022/06/11 15:16:24;;;;;;;2.60;1.75;;;25.00;63.10;;;;;;5015455;28;20226;-73
2022/06/11 15:19:16;;;;;;;3.03;1.90;;;25.00;63.50;;;;;;5006171;28;20226;-73
2022/06/11 15:22:13;;;;;;;5.20;2.10;;;25.20;64.10;;;;;;5002691;28;20766;-74
2022/06/11 15:25:08;;;;;;;2.28;1.80;;;25.40;63.30;;;;;;5002586;28;20222;-74
2022/06/11 15:27:59;;;;;;;3.90;1.85;;;25.60;63.40;;;;;;5014028;28;20966;-75
2022/06/11 15:30:48;;;;;;;2.60;1.95;;;25.50;61.90;;;;;;5002329;28;20250;-74
2022/06/11 15:33:38;;;;;;;1.88;1.70;;;25.50;63.10;;;;;;5002917;28;20570;-75
2022/06/11 15:36:27;;;;;;;4.10;1.83;;;25.60;62.60;;;;;;5002156;28;20246;-72
2022/06/11 15:39:18;;;;;;;3.53;1.80;;;25.40;62.30;;;;;;5000324;28;20233;-72
2022/06/11 15:42:17;;;;;;;3.28;1.70;;;25.40;63.10;;;;;;4999869;28;20223;-72
2022/06/11 15:45:09;;;;;;;4.10;2.30;;;24.90;63.40;;;;;;4993422;28;20218;-73
2022/06/11 15:48:03;;;;;;;4.05;1.98;;;24.90;64.30;;;;;;5006018;28;20237;-71
2022/06/11 15:51:01;;;;;;;2.83;1.80;;;25.10;64.40;;;;;;5000292;28;20308;-72
2022/06/11 15:57:26;;;;;;;4.97;2.00;;;25.10;64.60;;;;;;4988270;28;20389;-72
2022/06/11 16:00:24;;;;;;;5.30;1.92;;;24.90;65.50;;;;;;5002015;28;20269;-73
2022/06/11 16:03:22;;;;;;;2.75;1.60;;;24.70;66.30;;;;;;4986870;28;20251;-75
2022/06/11 16:06:23;;;;;;;5.25;1.88;;;24.90;66.90;;;;;;4977080;28;20234;-73
2022/06/11 16:09:24;;;;;;;5.07;2.00;;;24.60;67.40;;;;;;5006710;28;20363;-72
2022/06/11 16:12:24;;;;;;;4.90;1.80;;;24.70;67.30;;;;;;5004323;28;20230;-74
2022/06/11 16:15:17;;;;;;;2.42;1.83;;;24.70;67.60;;;;;;5000174;28;20651;-74
2022/06/11 16:18:27;;;;;;;4.88;2.50;;;24.50;67.70;;;;;;5004896;28;20284;-74
2022/06/11 16:21:26;;;;;;;2.75;1.67;;;24.50;68.00;;;;;;5004676;28;20232;-74
2022/06/11 16:24:27;;;;;;;4.28;1.65;;;24.40;67.90;;;;;;4985796;28;20219;-72
2022/06/11 16:27:21;;;;;;;2.50;1.92;;;24.40;68.80;;;;;;5003621;28;20318;-72
2022/06/11 16:30:18;;;;;;;3.08;1.70;;;24.70;69.20;;;;;;5018119;28;20233;-74
2022/06/11 16:33:13;;;;;;;5.70;1.70;;;24.30;69.20;;;;;;4977428;28;20222;-72
2022/06/11 16:36:04;;;;;;;3.58;1.85;;;24.30;69.80;;;;;;4999986;28;20226;-74
2022/06/11 16:38:53;;;;;;;3.38;1.90;;;24.50;69.90;;;;;;4998364;28;20593;-74
2022/06/11 16:44:52;;;;;;;2.03;1.60;;;24.50;70.10;;;;;;5019353;28;20225;-71
2022/06/11 16:47:45;;;;;;;2.53;1.88;;;24.50;70.00;;;;;;5001975;28;20336;-70
2022/06/11 16:56:52;;;;;;;2.80;1.80;;;24.70;71.00;;;;;;4996602;28;21757;-71
2022/06/11 16:59:43;;;;;;;3.97;1.85;;;24.50;72.00;;;;;;5011890;28;20230;-71
2022/06/11 17:05:59;;;;;;;3.67;1.80;;;24.30;73.00;;;;;;5000032;28;20274;-73
2022/06/11 17:08:47;;;;;;;6.40;2.10;;;24.20;73.70;;;;;;4999782;28;20229;-72
2022/06/11 17:11:36;;;;;;;2.50;1.75;;;24.20;73.50;;;;;;4994857;28;20247;-73
2022/06/11 17:14:25;;;;;;;2.88;1.77;;;24.10;73.50;;;;;;4994876;28;20237;-72
2022/06/11 17:17:15;;;;;;;4.75;1.58;;;24.30;73.50;;;;;;5000928;28;20578;-72
2022/06/11 17:20:08;;;;;;;3.45;1.80;;;24.40;73.50;;;;;;5000801;28;20241;-72
2022/06/11 17:23:03;;;;;;;5.88;2.00;;;24.40;74.20;;;;;;5002196;28;20696;-72
2022/06/11 17:25:58;;;;;;;4.20;2.17;;;24.50;74.60;;;;;;5000682;28;20229;-73
2022/06/11 17:28:47;;;;;;;6.07;1.77;;;24.50;74.80;;;;;;5004683;28;20245;-73
2022/06/11 17:31:38;;;;;;;3.08;1.85;;;24.10;74.80;;;;;;5002645;28;20241;-72
2022/06/11 17:34:27;;;;;;;2.88;1.42;;;24.00;76.00;;;;;;4994904;28;20233;-73
2022/06/11 17:37:27;;;;;;;2.92;1.80;;;23.90;75.80;;;;;;5000326;28;20217;-73
2022/06/11 17:40:24;;;;;;;5.25;1.95;;;23.90;75.80;;;;;;5002736;28;20238;-73
2022/06/11 17:43:12;;;;;;;4.18;1.60;;;23.90;76.20;;;;;;5002786;28;20240;-74
2022/06/11 17:46:01;;;;;;;3.15;1.88;;;23.90;76.40;;;;;;5004544;28;20241;-74
2022/06/11 17:48:50;;;;;;;2.80;1.80;;;23.80;76.30;;;;;;4999954;28;20246;-77
2022/06/11 17:51:48;;;;;;;3.47;1.63;;;23.60;76.70;;;;;;5000987;28;20218;-73
2022/06/11 17:54:38;;;;;;;3.75;2.17;;;23.70;77.40;;;;;;5002667;28;20328;-74
2022/06/11 17:57:28;;;;;;;4.53;1.95;;;23.70;77.20;;;;;;4995869;28;20227;-73
2022/06/11 18:00:20;;;;;;;4.47;1.80;;;23.60;77.20;;;;;;4995877;28;20260;-73
2022/06/11 18:03:14;;;;;;;3.42;1.60;;;23.50;77.40;;;;;;5001838;28;20276;-75
2022/06/11 18:06:04;;;;;;;5.38;1.90;;;23.60;76.60;;;;;;5001238;28;20275;-74
2022/06/11 18:08:53;;;;;;;3.70;1.67;;;23.60;76.50;;;;;;4996723;28;20544;-74
2022/06/11 18:11:46;;;;;;;2.13;1.50;;;23.70;76.70;;;;;;4996292;28;20261;-73
2022/06/11 18:14:35;;;;;;;3.40;1.70;;;23.60;76.90;;;;;;4997750;28;20214;-73
2022/06/11 18:17:24;;;;;;;3.08;1.73;;;23.60;77.10;;;;;;5000113;28;20226;-72
2022/06/11 18:20:17;;;;;;;4.85;2.20;;;23.40;77.40;;;;;;5001558;28;20720;-72
2022/06/11 18:26:15;;;;;;;5.15;1.75;;;23.30;77.90;;;;;;5011741;28;20353;-73
2022/06/11 18:29:04;;;;;;;5.60;1.90;;;23.20;78.40;;;;;;4999079;28;20226;-73
2022/06/11 18:31:54;;;;;;;3.85;2.10;;;23.10;78.30;;;;;;4999726;28;20324;-73
2022/06/11 18:34:42;;;;;;;4.57;2.00;;;23.10;78.70;;;;;;4998188;28;20229;-73
2022/06/11 18:37:31;;;;;;;2.50;1.83;;;23.00;79.20;;;;;;5003709;28;20408;-74
2022/06/11 18:40:22;;;;;;;4.07;2.00;;;23.00;79.10;;;;;;5003961;28;20960;-74
2022/06/11 18:43:13;;;;;;;3.55;1.88;;;23.00;79.50;;;;;;5007834;28;20303;-71
2022/06/11 18:46:02;;;;;;;4.43;1.95;;;23.00;79.60;;;;;;5022001;28;20360;-74
2022/06/11 18:48:53;;;;;;;4.05;2.20;;;23.00;80.30;;;;;;5004276;28;20719;-74
2022/06/11 18:51:42;;;;;;;5.85;1.90;;;23.00;80.40;;;;;;5004220;28;20292;-73
2022/06/11 18:54:30;;;;;;;3.78;1.83;;;23.10;81.30;;;;;;5007533;28;20226;-74
2022/06/11 18:57:19;;;;;;;2.70;1.98;;;23.10;81.20;;;;;;5005022;28;20240;-74
2022/06/11 19:00:11;;;;;;;3.78;2.00;;;23.00;81.30;;;;;;5006077;28;20223;-73
2022/06/11 19:02:59;;;;;;;6.82;2.10;;;22.90;81.40;;;;;;5004525;28;20237;-73
2022/06/11 19:05:50;;;;;;;6.22;2.10;;;22.90;82.00;;;;;;5003802;28;20240;-72
2022/06/11 19:08:39;;;;;;;3.75;2.00;;;22.90;83.30;;;;;;5003609;28;20717;-72
2022/06/11 19:11:28;;;;;;;7.22;2.25;;;22.80;82.50;;;;;;5004107;28;20775;-72
2022/06/11 19:14:16;;;;;;;3.22;1.90;;;22.80;83.10;;;;;;5005538;28;21182;-73
2022/06/11 19:17:05;;;;;;;6.10;2.42;;;22.70;83.60;;;;;;5003559;28;20227;-72
2022/06/11 19:19:55;;;;;;;6.15;3.42;;;22.70;84.50;;;;;;5008381;28;20337;-72
2022/06/11 19:22:45;;;;;;;7.18;3.10;;;22.70;85.40;;;;;;5003583;28;20214;-72
2022/06/11 19:25:37;;;;;;;6.05;3.60;;;22.60;85.90;;;;;;5004001;28;20720;-73
2022/06/11 19:28:27;;;;;;;8.20;3.90;;;22.60;87.00;;;;;;4999080;28;20210;-73
2022/06/11 19:31:15;;;;;;;5.85;3.83;;;22.70;87.10;;;;;;5001187;28;20219;-73
2022/06/11 19:34:04;;;;;;;7.25;4.68;;;22.60;88.20;;;;;;5004369;28;20234;-73
2022/06/11 19:36:57;;;;;;;11.77;6.30;;;22.50;88.20;;;;;;5003494;28;20236;-73
2022/06/11 19:39:50;;;;;;;9.35;5.75;;;22.50;89.40;;;;;;5003534;28;20611;-72
2022/06/11 19:42:40;;;;;;;8.48;6.10;;;22.50;90.30;;;;;;5003230;28;20233;-73
2022/06/11 19:45:31;;;;;;;9.77;5.80;;;22.40;90.30;;;;;;5003069;28;20222;-73
2022/06/11 19:48:24;;;;;;;7.50;4.15;;;22.40;90.40;;;;;;5005301;28;20328;-73
2022/06/11 19:51:15;;;;;;;8.45;5.50;;;22.30;90.40;;;;;;5006057;28;20498;-73
2022/06/11 19:54:04;;;;;;;9.10;6.03;;;22.30;91.10;;;;;;5005435;28;20297;-74
2022/06/11 19:56:54;;;;;;;5.55;3.13;;;22.40;92.40;;;;;;5004211;28;20226;-75
2022/06/11 19:59:43;;;;;;;7.78;4.07;;;22.30;91.30;;;;;;5015051;28;20247;-74
2022/06/11 20:02:32;;;;;;;8.95;3.42;;;22.30;91.90;;;;;;5006525;28;20337;-73
2022/06/11 20:05:21;;;;;;;6.05;3.53;;;22.30;92.60;;;;;;5004196;28;20230;-73
2022/06/11 20:08:10;;;;;;;5.65;3.22;;;22.20;93.10;;;;;;5013731;28;20217;-74
2022/06/11 20:10:59;;;;;;;5.88;3.28;;;22.20;92.60;;;;;;5003180;28;20228;-74
2022/06/11 20:13:50;;;;;;;4.75;2.97;;;22.20;93.10;;;;;;5005923;28;20272;-74
2022/06/11 20:16:40;;;;;;;7.45;4.38;;;22.20;93.40;;;;;;5002981;28;20214;-74
2022/06/11 20:19:29;;;;;;;15.18;4.15;;;22.00;94.50;;;;;;5001507;28;20230;-73
2022/06/11 20:22:22;;;;;;;7.78;4.20;;;22.10;95.10;;;;;;5003919;28;20226;-74
2022/06/11 20:25:12;;;;;;;10.23;4.20;;;22.00;96.40;;;;;;5002914;28;20218;-75
2022/06/11 20:28:02;;;;;;;6.60;3.90;;;22.00;98.00;;;;;;5004364;28;20237;-73
2022/06/11 20:30:52;;;;;;;7.03;3.55;;;22.00;98.10;;;;;;5001162;28;20226;-75
2022/06/11 20:33:41;;;;;;;9.45;4.22;;;21.90;98.90;;;;;;5011264;28;21052;-74
2022/06/11 20:36:31;;;;;;;7.60;3.28;;;21.90;99.60;;;;;;5000581;28;20226;-72
2022/06/11 20:39:19;;;;;;;6.13;3.33;;;21.80;99.60;;;;;;5016782;28;20229;-72
2022/06/11 20:42:10;;;;;;;9.10;3.30;;;21.90;98.70;;;;;;5015908;28;20215;-74
2022/06/11 20:44:59;;;;;;;7.72;3.40;;;21.90;99.60;;;;;;5000210;28;20880;-74
2022/06/11 20:47:53;;;;;;;8.77;3.08;;;21.80;99.90;;;;;;5009602;28;20241;-72
2022/06/11 20:50:45;;;;;;;4.80;3.00;;;21.80;99.20;;;;;;5002456;28;20214;-74
2022/06/11 20:53:34;;;;;;;5.35;3.30;;;21.80;99.90;;;;;;5003114;28;20284;-73
2022/06/11 20:56:22;;;;;;;7.60;2.55;;;21.70;99.90;;;;;;5004171;28;20231;-73
2022/06/11 20:59:11;;;;;;;6.32;3.50;;;21.70;99.30;;;;;;5002261;28;20222;-74
2022/06/11 21:01:59;;;;;;;11.40;3.42;;;21.60;99.90;;;;;;5002507;28;20233;-74
2022/06/11 21:04:50;;;;;;;4.97;3.30;;;21.70;99.90;;;;;;5004669;28;20713;-73
2022/06/11 21:10:45;;;;;;;10.35;3.30;;;21.50;99.90;;;;;;5003207;28;20221;-74
2022/06/11 21:13:39;;;;;;;7.45;3.50;;;21.50;99.90;;;;;;4997720;28;20749;-73
2022/06/11 21:16:28;;;;;;;8.88;4.28;;;21.50;99.90;;;;;;5002890;28;20234;-73
2022/06/11 21:19:18;;;;;;;5.28;3.72;;;21.40;99.90;;;;;;4998283;28;20573;-74
2022/06/11 21:22:14;;;;;;;12.02;3.53;;;21.40;99.90;;;;;;5000546;28;20234;-73
2022/06/11 21:25:07;;;;;;;7.07;3.40;;;21.40;99.90;;;;;;5004105;28;20244;-75
2022/06/11 21:27:56;;;;;;;7.93;3.70;;;21.30;99.90;;;;;;5005440;28;20226;-77
2022/06/11 21:30:46;;;;;;;6.85;2.90;;;21.40;99.90;;;;;;4998386;28;20225;-76
2022/06/11 21:33:35;;;;;;;4.95;2.88;;;21.30;99.90;;;;;;5003794;28;20218;-77
2022/06/11 21:36:23;;;;;;;6.85;3.60;;;21.40;99.90;;;;;;4999543;28;20226;-73
2022/06/11 21:39:13;;;;;;;4.97;2.92;;;21.40;99.90;;;;;;5005932;28;20249;-76
2022/06/11 21:42:06;;;;;;;7.45;3.30;;;21.30;99.90;;;;;;5003659;28;20233;-71
2022/06/11 21:44:54;;;;;;;3.67;2.35;;;21.20;99.90;;;;;;5001541;28;20222;-72
2022/06/11 21:47:45;;;;;;;5.22;3.35;;;21.20;99.90;;;;;;5000325;28;20230;-73
2022/06/11 21:50:34;;;;;;;7.38;3.17;;;21.10;99.90;;;;;;5003958;28;20224;-74
2022/06/11 21:53:23;;;;;;;9.15;3.55;;;21.10;99.90;;;;;;5000342;28;20234;-73
2022/06/11 21:56:16;;;;;;;5.57;3.70;;;21.00;99.90;;;;;;5000748;28;20819;-73
2022/06/11 21:59:05;;;;;;;7.22;3.95;;;21.00;99.90;;;;;;4997758;28;20226;-70
2022/06/11 22:01:56;;;;;;;9.20;4.05;;;21.00;99.90;;;;;;5001087;28;20222;-71
2022/06/11 22:04:47;;;;;;;10.20;3.25;;;21.00;99.90;;;;;;4997965;28;20218;-72
2022/06/11 22:07:36;;;;;;;6.30;2.97;;;21.00;99.90;;;;;;4997996;28;20229;-71
2022/06/11 22:10:27;;;;;;;6.15;3.50;;;20.90;99.90;;;;;;5002709;28;20226;-72
2022/06/11 22:13:18;;;;;;;5.72;3.42;;;20.90;99.90;;;;;;4992053;28;20238;-70
2022/06/11 22:16:10;;;;;;;4.35;3.00;;;20.90;99.90;;;;;;4998721;28;20224;-70